Terminal Aerodrome Forecast
Issued by NWS Wilmington, NC

Home | Current Version | Previous Version | Text Only | Print | Product List | Glossary On
Versions: 1 2 3 4 5 6 7 8 9 10 11 12 13 14
413
FTUS42 KILM 210521
TAFMYR
TAF
KMYR 210521Z 2106/2206 15005KT P6SM SKC
     FM210900 00000KT 1/2SM FG BKN003
     FM211200 02003KT 4SM BR BKN250
     FM211500 12008KT P6SM BKN250
     FM211700 14009KT P6SM VCTS SCT030CB
     FM212100 17006KT P6SM SCT030
      AMD LTD TO CLD VIS AND WIND TIL 211000=

USA.gov is the U.S. government's official web portal to all federal, state and local government web resources and services.